Indianola, Iowa
Current Conditions -  °F | °C
As of 8:54 AM on Friday 24 Oct 2014 (Local Time) from KDSM Reporting Station
Moderate Fog Moderate Fog  
Wind Chill: 15°   Ceiling: 200
Heat Index: 15°   Visibility: 0.12mi
Dew Point: 14°   Wind: 10mph
Humidity: 96%   Direction: 190°S
Pressure: 29.98"   Gusts: NA
Location:  41.36°N, 93.56°W
Report Text: KDSM 241354Z 19009KT 1/8SM R31/2600V3500FT FG OVC002 15/14 A2998 RMK AO2 SFC VIS 1/2 SLP149 T01500144
Loading
Personal Weather Stations






























Interactive Weather Map
Tropical Storm Tracking
New forecast layout! Learn more

10-Day Weather Forecast

Advertisements
Track Severe Weather on mobile